Patricia Ann — WDE2845 — position and weather

sailwx.info

Track history (hours):
 
Tides and Currents Weather Stations Pressure Air Temp Water Temp Dewpoint Dewpoint Depression Visibility Wind Speed Wind Dir Waves Ship Positions

Patricia Ann

Owner: AmNav Maritime Services, Oakland, CA. More information available from US FCC via Universal Licensing System and Coast Guard Vessel Documentation Center.

Last reported at 2015-Mar-01 03:33 UTC. Time now 2015-Mar-01 04:31 UTC.
Position N 37°49' W 122°19'.

Length 24 m; draft 4.9 m.

Type: Tug. MMSI: 367330510.

Date/timePositionNaut miles runAvg speedWind from/ knotsBaromVisibWave heightAir tempDewpointWater temp
2015-Mar-01 03:33N 37°49' W 122°19'0 0.0
2015-Mar-01 02:32N 37°49' W 122°19'0 0.0
2015-Mar-01 01:33N 37°49' W 122°19'0 0.0
2015-Mar-01 00:33N 37°49' W 122°19'0 0.0
2015-Feb-28 23:28N 37°49' W 122°19'0 0.0
2015-Feb-28 22:33N 37°49' W 122°19'0 0.0
2015-Feb-28 21:33N 37°49' W 122°19'0 0.0
2015-Feb-28 20:33N 37°49' W 122°19'0 0.0
2015-Feb-28 19:33N 37°49' W 122°19'0 0.0
2015-Feb-28 18:33N 37°49' W 122°19'0 0.0
2015-Feb-28 17:32N 37°49' W 122°19'2 1.7
2015-Feb-28 16:33N 37°48' W 122°19'2 1.6
2015-Feb-28 15:33N 37°48' W 122°21'1 1.0
2015-Feb-28 14:32N 37°48' W 122°19'1 1.0
2015-Feb-28 13:33N 37°48' W 122°18'3 2.5
2015-Feb-28 12:33N 37°48' W 122°21'2 2.2
2015-Feb-28 11:33N 37°49' W 122°19'0 0.0
2015-Feb-28 10:33N 37°49' W 122°19'0 0.0
2015-Feb-28 09:33N 37°49' W 122°19'0 0.0
2015-Feb-28 08:33N 37°49' W 122°19'0 0.0
2015-Feb-28 07:33N 37°49' W 122°19'0 0.0
2015-Feb-28 06:33N 37°49' W 122°19'0 0.0
2015-Feb-28 05:33N 37°49' W 122°19'0 0.0
2015-Feb-28 04:33N 37°49' W 122°19'2 1.7
2015-Feb-28 03:33N 37°48' W 122°19'2 1.6
2015-Feb-28 02:33N 37°49' W 122°20'1 1.2
2015-Feb-28 01:33N 37°49' W 122°19'0 0.0
2015-Feb-28 00:33N 37°49' W 122°19'0 0.0
2015-Feb-27 23:33N 37°49' W 122°19'0 0.0
2015-Feb-27 22:33N 37°49' W 122°19'1 0.6
2015-Feb-27 21:34N 37°49' W 122°19'1 0.6
2015-Feb-27 20:33N 37°49' W 122°19'0 0.0
2015-Feb-27 19:33N 37°49' W 122°19'0 0.0
2015-Feb-27 18:33N 37°49' W 122°19'0 0.0
2015-Feb-27 17:33N 37°49' W 122°19'0 0.0
2015-Feb-27 16:33N 37°49' W 122°19'1 0.6
2015-Feb-27 15:34N 37°49' W 122°19'4 3.7
2015-Feb-27 14:34N 37°48' W 122°24'0 0.3
2015-Feb-27 13:33N 37°48' W 122°24'4 3.9
2015-Feb-27 12:33N 37°49' W 122°19'0 0.0
2015-Feb-27 11:33N 37°49' W 122°19'0 0.0
2015-Feb-27 10:33N 37°49' W 122°19'0 0.0
2015-Feb-27 09:33N 37°49' W 122°19'0 0.0
2015-Feb-27 08:33N 37°49' W 122°19'0 0.0
2015-Feb-27 07:33N 37°49' W 122°19'0 0.0
2015-Feb-27 06:33N 37°49' W 122°19'0 0.0
2015-Feb-27 05:33N 37°49' W 122°19'0 0.0
2015-Feb-27 04:33N 37°49' W 122°19'0 0.0
2015-Feb-27 03:33N 37°49' W 122°19'0 0.0
2015-Feb-27 02:33N 37°49' W 122°19'0 0.0
2015-Feb-27 01:33N 37°49' W 122°19'6 6.3
2015-Feb-27 00:33N 37°54' W 122°23'1 1.3
2015-Feb-26 23:33N 37°54' W 122°22'3 3.1
2015-Feb-26 22:34N 37°53' W 122°25'4 3.6
2015-Feb-26 21:33N 37°50' W 122°22'3 2.7
2015-Feb-26 20:33N 37°49' W 122°19'0 0.0
2015-Feb-26 19:33N 37°49' W 122°19'0 0.0
2015-Feb-26 18:33N 37°49' W 122°19'3 3.0
2015-Feb-26 17:34N 37°48' W 122°22'2 1.8
2015-Feb-26 16:33N 37°49' W 122°20'0 0.0
2015-Feb-26 15:33N 37°49' W 122°20'0 0.3
2015-Feb-26 14:33N 37°49' W 122°20'1 0.7
2015-Feb-26 13:34N 37°49' W 122°20'1 0.9
2015-Feb-26 12:33N 37°49' W 122°19'0 0.0
2015-Feb-26 11:33N 37°49' W 122°19'0 0.0
2015-Feb-26 10:33N 37°49' W 122°19'0 0.0
2015-Feb-26 09:33N 37°49' W 122°19'0 0.0
2015-Feb-26 08:33N 37°49' W 122°19'0 0.0
2015-Feb-26 07:33N 37°49' W 122°19'0 0.0
2015-Feb-26 06:33N 37°49' W 122°19'0 0.0
2015-Feb-26 05:33N 37°49' W 122°19'0 0.0
2015-Feb-26 04:33N 37°49' W 122°19'0 0.0
2015-Feb-26 03:33N 37°49' W 122°19'0 0.0
2015-Feb-26 02:33N 37°49' W 122°19'0 0.0
2015-Feb-26 01:33N 37°49' W 122°19'0 0.0
2015-Feb-26 00:33N 37°49' W 122°19'0 0.0
2015-Feb-25 23:33N 37°49' W 122°19'0 0.0
2015-Feb-25 22:33N 37°49' W 122°19'2 1.9
2015-Feb-25 21:33N 37°48' W 122°18'0 0.4
2015-Feb-25 20:33N 37°48' W 122°18'2 1.7
2015-Feb-25 19:33N 37°49' W 122°19'0 0.0
2015-Feb-25 18:33N 37°49' W 122°19'0 0.0
2015-Feb-25 17:33N 37°49' W 122°19'0 0.0
2015-Feb-25 16:33N 37°49' W 122°19'0 0.0
2015-Feb-25 15:33N 37°49' W 122°19'0 0.3
2015-Feb-25 14:33N 37°49' W 122°19'1 1.2
2015-Feb-25 13:33N 37°49' W 122°20'1 1.5
2015-Feb-25 12:33N 37°49' W 122°19'0 0.0
2015-Feb-25 11:33N 37°49' W 122°19'0 0.0
2015-Feb-25 10:33N 37°49' W 122°19'0 0.0
2015-Feb-25 09:33N 37°49' W 122°19'0 0.0
2015-Feb-25 08:33N 37°49' W 122°19'0 0.0
2015-Feb-25 07:33N 37°49' W 122°19'0 0.0
2015-Feb-25 06:33N 37°49' W 122°19'0 0.0
2015-Feb-25 05:33N 37°49' W 122°19'1 0.6
2015-Feb-25 04:33N 37°49' W 122°19'1 1.2
2015-Feb-25 03:33N 37°48' W 122°21'1 1.4
2015-Feb-25 02:33N 37°49' W 122°19'0 0.4
2015-Feb-25 01:33N 37°49' W 122°19'0 0.0
2015-Feb-25 00:33N 37°49' W 122°19'0 0.0
2015-Feb-24 23:33N 37°49' W 122°19'0 0.0
2015-Feb-24 22:33N 37°49' W 122°19'0 0.0
2015-Feb-24 21:33N 37°49' W 122°19'0 0.0
2015-Feb-24 20:33N 37°49' W 122°19'0 0.0
2015-Feb-24 19:33N 37°49' W 122°19'0 0.0
2015-Feb-24 18:33N 37°49' W 122°19'1 0.6
2015-Feb-24 17:33N 37°49' W 122°19'2 1.7
2015-Feb-24 16:33N 37°48' W 122°18'1 1.1
2015-Feb-24 15:33N 37°48' W 122°19'2 1.5
2015-Feb-24 14:33N 37°49' W 122°19'1 0.7
2015-Feb-24 13:33N 37°49' W 122°19'3 3.0
2015-Feb-24 12:34N 37°47' W 122°22'1 0.9
2015-Feb-24 11:34N 37°48' W 122°22'3 2.7
2015-Feb-24 10:33N 37°49' W 122°19'0 0.0
2015-Feb-24 09:33N 37°49' W 122°19'0 0.0
2015-Feb-24 08:33N 37°49' W 122°19'0 0.0
2015-Feb-24 07:33N 37°49' W 122°19'0 0.0
2015-Feb-24 06:33N 37°49' W 122°19'0 0.0
2015-Feb-24 05:33N 37°49' W 122°19'0 0.0
2015-Feb-24 04:33N 37°49' W 122°19'2 1.7
2015-Feb-24 03:33N 37°48' W 122°20'2 2.2
2015-Feb-24 02:33N 37°48' W 122°17'3 3.4
2015-Feb-24 01:33N 37°48' W 122°22'3 2.6
2015-Feb-24 00:33N 37°49' W 122°19'0 0.0
2015-Feb-23 23:33N 37°49' W 122°19'0 0.3
2015-Feb-23 22:33N 37°49' W 122°19'3 3.1
2015-Feb-23 21:34N 37°47' W 122°22'2 2.0
2015-Feb-23 20:33N 37°49' W 122°20'0 0.0
2015-Feb-23 19:33N 37°49' W 122°20'1 1.2
2015-Feb-23 18:33N 37°49' W 122°19'0 0.3
2015-Feb-23 17:33N 37°49' W 122°19'0 0.0
2015-Feb-23 16:33N 37°49' W 122°19'3 3.4
2015-Feb-23 15:33N 37°47' W 122°16'1 1.3
2015-Feb-23 14:33N 37°48' W 122°17'0 0.0
2015-Feb-23 13:33N 37°48' W 122°17'0 0.0
2015-Feb-23 12:32N 37°48' W 122°17'0 0.0
2015-Feb-23 11:33N 37°48' W 122°17'0 0.4
2015-Feb-23 10:33N 37°47' W 122°17'2 1.6
2015-Feb-23 09:32N 37°48' W 122°19'2 1.6
2015-Feb-23 08:33N 37°49' W 122°19'0 0.0
2015-Feb-23 07:33N 37°49' W 122°19'0 0.0
2015-Feb-23 06:33N 37°49' W 122°19'0 0.0
2015-Feb-23 05:33N 37°49' W 122°19'0 0.0
2015-Feb-23 04:33N 37°49' W 122°19'0 0.0
2015-Feb-23 03:33N 37°49' W 122°19'0 0.0
2015-Feb-23 02:33N 37°49' W 122°19'0 0.0
2015-Feb-23 01:33N 37°49' W 122°19'0 0.0
2015-Feb-23 00:33N 37°49' W 122°19'0 0.0
2015-Feb-22 23:33N 37°49' W 122°19'0 0.0
2015-Feb-22 22:33N 37°49' W 122°19'0 0.0
2015-Feb-22 21:33N 37°49' W 122°19'0 0.0
2015-Feb-22 20:33N 37°49' W 122°19'0 0.0
2015-Feb-22 19:33N 37°49' W 122°19'0 0.3
2015-Feb-22 18:33N 37°49' W 122°19'2 2.3
2015-Feb-22 17:33N 37°48' W 122°22'3 2.5
2015-Feb-22 16:33N 37°49' W 122°19'0 0.0
2015-Feb-22 15:33N 37°49' W 122°19'0 0.0
2015-Feb-22 14:33N 37°49' W 122°19'0 0.0
2015-Feb-22 13:33N 37°49' W 122°19'0 0.0
2015-Feb-22 12:33N 37°49' W 122°19'0 0.0
2015-Feb-22 11:33N 37°49' W 122°19'0 0.0
2015-Feb-22 10:33N 37°49' W 122°19'0 0.0
2015-Feb-22 09:33N 37°49' W 122°19'0 0.0
2015-Feb-22 08:33N 37°49' W 122°19'0 0.0
2015-Feb-22 07:33N 37°49' W 122°19'0 0.0
2015-Feb-22 06:33N 37°49' W 122°19'0 0.0
2015-Feb-22 05:33N 37°49' W 122°19'0 0.0
2015-Feb-22 04:33N 37°49' W 122°19'0 0.0
2015-Feb-22 03:33N 37°49' W 122°19'0 0.0
2015-Feb-22 02:33N 37°49' W 122°19'0 0.0
2015-Feb-22 01:33N 37°49' W 122°19'0 0.0
2015-Feb-22 00:33N 37°49' W 122°19'0 0.0
2015-Feb-21 23:33N 37°49' W 122°19'0 0.0
2015-Feb-21 22:33N 37°49' W 122°19'0 0.0
2015-Feb-21 21:33N 37°49' W 122°19'0 0.0
2015-Feb-21 20:33N 37°49' W 122°19'0 0.0
2015-Feb-21 19:33N 37°49' W 122°19'0 0.0
2015-Feb-21 18:33N 37°49' W 122°19'2 2.0
2015-Feb-21 17:34N 37°48' W 122°21'0 0.3
2015-Feb-21 16:33N 37°48' W 122°21'1 1.1
2015-Feb-21 15:33N 37°49' W 122°20'0 0.0
2015-Feb-21 14:33N 37°49' W 122°20'0 0.0
2015-Feb-21 13:33N 37°49' W 122°20'0 0.0
2015-Feb-21 12:33N 37°49' W 122°20'0 0.0
2015-Feb-21 11:33N 37°49' W 122°20'0 0.5
2015-Feb-21 10:33N 37°49' W 122°19'1 0.7
2015-Feb-21 09:33N 37°49' W 122°19'0 0.1
2015-Feb-21 08:33N 37°49' W 122°19'0 0.0
2015-Feb-21 07:33N 37°49' W 122°19'0 0.0
2015-Feb-21 06:33N 37°49' W 122°19'0 0.0
2015-Feb-21 05:33N 37°49' W 122°19'0 0.0
2015-Feb-21 04:33N 37°49' W 122°19'0 0.0
2015-Feb-21 03:33N 37°49' W 122°19'0 0.0
2015-Feb-21 02:33N 37°49' W 122°19'0 0.0
2015-Feb-21 01:33N 37°49' W 122°19'0 0.4
2015-Feb-21 00:34N 37°49' W 122°19'0 0.4
2015-Feb-20 23:33N 37°49' W 122°19'0 0.0
2015-Feb-20 22:33N 37°49' W 122°19'2 1.8
2015-Feb-20 21:34N 37°48' W 122°18'0 0.3
2015-Feb-20 20:33N 37°48' W 122°18'2 1.9
2015-Feb-20 19:33N 37°48' W 122°20'2 1.8
2015-Feb-20 18:33N 37°49' W 122°19'0 0.0
2015-Feb-20 17:33N 37°49' W 122°19'0 0.0
2015-Feb-20 16:33N 37°49' W 122°19'0 0.0
2015-Feb-20 15:33N 37°49' W 122°19'0 0.0
2015-Feb-20 14:33N 37°49' W 122°19'0 0.0
2015-Feb-20 13:33N 37°49' W 122°19'0 0.0
2015-Feb-20 12:33N 37°49' W 122°19'0 0.0
2015-Feb-20 11:33N 37°49' W 122°19'0 0.0
2015-Feb-20 10:33N 37°49' W 122°19'0 0.0
2015-Feb-20 09:33N 37°49' W 122°19'0 0.0
2015-Feb-20 08:33N 37°49' W 122°19'0 0.0
2015-Feb-20 07:33N 37°49' W 122°19'0 0.0
2015-Feb-20 06:33N 37°49' W 122°19'0 0.0
2015-Feb-20 05:33N 37°49' W 122°19'2 1.9
2015-Feb-20 04:33N 37°48' W 122°18'1 0.5
2015-Feb-20 03:33N 37°48' W 122°17'0 0.0
2015-Feb-20 02:33N 37°48' W 122°17'0 0.0
2015-Feb-20 01:33N 37°48' W 122°17'0 0.0
2015-Feb-20 00:33N 37°48' W 122°17'0 0.4
2015-Feb-19 23:34N 37°48' W 122°18'0 0.3
2015-Feb-19 22:33N 37°48' W 122°18'0 0.0
2015-Feb-19 21:33N 37°48' W 122°18'2 1.8
2015-Feb-19 20:33N 37°49' W 122°19'0 0.0
2015-Feb-19 19:33N 37°49' W 122°19'0 0.0
2015-Feb-19 18:33N 37°49' W 122°19'0 0.0
2015-Feb-19 17:33N 37°49' W 122°19'0 0.0
2015-Feb-19 16:33N 37°49' W 122°19'0 0.0
2015-Feb-19 15:33N 37°49' W 122°19'2 1.8
2015-Feb-19 14:33N 37°48' W 122°18'2 1.8
2015-Feb-19 13:33N 37°49' W 122°19'0 0.0
2015-Feb-19 12:33N 37°49' W 122°19'0 0.0
2015-Feb-19 11:33N 37°49' W 122°19'0 0.0
2015-Feb-19 10:33N 37°49' W 122°19'0 0.0
2015-Feb-19 09:33N 37°49' W 122°19'0 0.0
2015-Feb-19 08:33N 37°49' W 122°19'0 0.0
2015-Feb-19 07:33N 37°49' W 122°19'0 0.0
2015-Feb-19 06:33N 37°49' W 122°19'0 0.0
2015-Feb-19 05:33N 37°49' W 122°19'0 0.0
2015-Feb-19 04:33N 37°49' W 122°19'  
Track history (hours):
 
Tides and Currents Weather Stations Pressure Air Temp Water Temp Dewpoint Dewpoint Depression Visibility Wind Speed Wind Dir Waves Ship Positions

Patricia Ann

Owner: AmNav Maritime Services, Oakland, CA. More information available from US FCC via Universal Licensing System and Coast Guard Vessel Documentation Center.

Last reported at 2015-Mar-01 03:33 UTC. Time now 2015-Mar-01 04:31 UTC.
Position N 37°49' W 122°19'.

Length 24 m; draft 4.9 m.

Type: Tug. MMSI: 367330510.

Date/timePositionNaut miles runAvg speedWind from/ knotsBaromVisibWave heightAir tempDewpointWater temp
2015-Mar-01 03:33N 37°49' W 122°19'0 0.0
2015-Mar-01 02:32N 37°49' W 122°19'0 0.0
2015-Mar-01 01:33N 37°49' W 122°19'0 0.0
2015-Mar-01 00:33N 37°49' W 122°19'0 0.0
2015-Feb-28 23:28N 37°49' W 122°19'0 0.0
2015-Feb-28 22:33N 37°49' W 122°19'0 0.0
2015-Feb-28 21:33N 37°49' W 122°19'0 0.0
2015-Feb-28 20:33N 37°49' W 122°19'0 0.0
2015-Feb-28 19:33N 37°49' W 122°19'0 0.0
2015-Feb-28 18:33N 37°49' W 122°19'0 0.0
2015-Feb-28 17:32N 37°49' W 122°19'2 1.7
2015-Feb-28 16:33N 37°48' W 122°19'2 1.6
2015-Feb-28 15:33N 37°48' W 122°21'1 1.0
2015-Feb-28 14:32N 37°48' W 122°19'1 1.0
2015-Feb-28 13:33N 37°48' W 122°18'3 2.5
2015-Feb-28 12:33N 37°48' W 122°21'2 2.2
2015-Feb-28 11:33N 37°49' W 122°19'0 0.0
2015-Feb-28 10:33N 37°49' W 122°19'0 0.0
2015-Feb-28 09:33N 37°49' W 122°19'0 0.0
2015-Feb-28 08:33N 37°49' W 122°19'0 0.0
2015-Feb-28 07:33N 37°49' W 122°19'0 0.0
2015-Feb-28 06:33N 37°49' W 122°19'0 0.0
2015-Feb-28 05:33N 37°49' W 122°19'0 0.0
2015-Feb-28 04:33N 37°49' W 122°19'2 1.7
2015-Feb-28 03:33N 37°48' W 122°19'2 1.6
2015-Feb-28 02:33N 37°49' W 122°20'1 1.2
2015-Feb-28 01:33N 37°49' W 122°19'0 0.0
2015-Feb-28 00:33N 37°49' W 122°19'0 0.0
2015-Feb-27 23:33N 37°49' W 122°19'0 0.0
2015-Feb-27 22:33N 37°49' W 122°19'1 0.6
2015-Feb-27 21:34N 37°49' W 122°19'1 0.6
2015-Feb-27 20:33N 37°49' W 122°19'0 0.0
2015-Feb-27 19:33N 37°49' W 122°19'0 0.0
2015-Feb-27 18:33N 37°49' W 122°19'0 0.0
2015-Feb-27 17:33N 37°49' W 122°19'0 0.0
2015-Feb-27 16:33N 37°49' W 122°19'1 0.6
2015-Feb-27 15:34N 37°49' W 122°19'4 3.7
2015-Feb-27 14:34N 37°48' W 122°24'0 0.3
2015-Feb-27 13:33N 37°48' W 122°24'4 3.9
2015-Feb-27 12:33N 37°49' W 122°19'0 0.0
2015-Feb-27 11:33N 37°49' W 122°19'0 0.0
2015-Feb-27 10:33N 37°49' W 122°19'0 0.0
2015-Feb-27 09:33N 37°49' W 122°19'0 0.0
2015-Feb-27 08:33N 37°49' W 122°19'0 0.0
2015-Feb-27 07:33N 37°49' W 122°19'0 0.0
2015-Feb-27 06:33N 37°49' W 122°19'0 0.0
2015-Feb-27 05:33N 37°49' W 122°19'0 0.0
2015-Feb-27 04:33N 37°49' W 122°19'0 0.0
2015-Feb-27 03:33N 37°49' W 122°19'0 0.0
2015-Feb-27 02:33N 37°49' W 122°19'0 0.0
2015-Feb-27 01:33N 37°49' W 122°19'6 6.3
2015-Feb-27 00:33N 37°54' W 122°23'1 1.3
2015-Feb-26 23:33N 37°54' W 122°22'3 3.1
2015-Feb-26 22:34N 37°53' W 122°25'4 3.6
2015-Feb-26 21:33N 37°50' W 122°22'3 2.7
2015-Feb-26 20:33N 37°49' W 122°19'0 0.0
2015-Feb-26 19:33N 37°49' W 122°19'0 0.0
2015-Feb-26 18:33N 37°49' W 122°19'3 3.0
2015-Feb-26 17:34N 37°48' W 122°22'2 1.8
2015-Feb-26 16:33N 37°49' W 122°20'0 0.0
2015-Feb-26 15:33N 37°49' W 122°20'0 0.3
2015-Feb-26 14:33N 37°49' W 122°20'1 0.7
2015-Feb-26 13:34N 37°49' W 122°20'1 0.9
2015-Feb-26 12:33N 37°49' W 122°19'0 0.0
2015-Feb-26 11:33N 37°49' W 122°19'0 0.0
2015-Feb-26 10:33N 37°49' W 122°19'0 0.0
2015-Feb-26 09:33N 37°49' W 122°19'0 0.0
2015-Feb-26 08:33N 37°49' W 122°19'0 0.0
2015-Feb-26 07:33N 37°49' W 122°19'0 0.0
2015-Feb-26 06:33N 37°49' W 122°19'0 0.0
2015-Feb-26 05:33N 37°49' W 122°19'0 0.0
2015-Feb-26 04:33N 37°49' W 122°19'0 0.0
2015-Feb-26 03:33N 37°49' W 122°19'0 0.0
2015-Feb-26 02:33N 37°49' W 122°19'0 0.0
2015-Feb-26 01:33N 37°49' W 122°19'0 0.0
2015-Feb-26 00:33N 37°49' W 122°19'0 0.0
2015-Feb-25 23:33N 37°49' W 122°19'0 0.0
2015-Feb-25 22:33N 37°49' W 122°19'2 1.9
2015-Feb-25 21:33N 37°48' W 122°18'0 0.4
2015-Feb-25 20:33N 37°48' W 122°18'2 1.7
2015-Feb-25 19:33N 37°49' W 122°19'0 0.0
2015-Feb-25 18:33N 37°49' W 122°19'0 0.0
2015-Feb-25 17:33N 37°49' W 122°19'0 0.0
2015-Feb-25 16:33N 37°49' W 122°19'0 0.0
2015-Feb-25 15:33N 37°49' W 122°19'0 0.3
2015-Feb-25 14:33N 37°49' W 122°19'1 1.2
2015-Feb-25 13:33N 37°49' W 122°20'1 1.5
2015-Feb-25 12:33N 37°49' W 122°19'0 0.0
2015-Feb-25 11:33N 37°49' W 122°19'0 0.0
2015-Feb-25 10:33N 37°49' W 122°19'0 0.0
2015-Feb-25 09:33N 37°49' W 122°19'0 0.0
2015-Feb-25 08:33N 37°49' W 122°19'0 0.0
2015-Feb-25 07:33N 37°49' W 122°19'0 0.0
2015-Feb-25 06:33N 37°49' W 122°19'0 0.0
2015-Feb-25 05:33N 37°49' W 122°19'1 0.6
2015-Feb-25 04:33N 37°49' W 122°19'1 1.2
2015-Feb-25 03:33N 37°48' W 122°21'1 1.4
2015-Feb-25 02:33N 37°49' W 122°19'0 0.4
2015-Feb-25 01:33N 37°49' W 122°19'0 0.0
2015-Feb-25 00:33N 37°49' W 122°19'0 0.0
2015-Feb-24 23:33N 37°49' W 122°19'0 0.0
2015-Feb-24 22:33N 37°49' W 122°19'0 0.0
2015-Feb-24 21:33N 37°49' W 122°19'0 0.0
2015-Feb-24 20:33N 37°49' W 122°19'0 0.0
2015-Feb-24 19:33N 37°49' W 122°19'0 0.0
2015-Feb-24 18:33N 37°49' W 122°19'1 0.6
2015-Feb-24 17:33N 37°49' W 122°19'2 1.7
2015-Feb-24 16:33N 37°48' W 122°18'1 1.1
2015-Feb-24 15:33N 37°48' W 122°19'2 1.5
2015-Feb-24 14:33N 37°49' W 122°19'1 0.7
2015-Feb-24 13:33N 37°49' W 122°19'3 3.0
2015-Feb-24 12:34N 37°47' W 122°22'1 0.9
2015-Feb-24 11:34N 37°48' W 122°22'3 2.7
2015-Feb-24 10:33N 37°49' W 122°19'0 0.0
2015-Feb-24 09:33N 37°49' W 122°19'0 0.0
2015-Feb-24 08:33N 37°49' W 122°19'0 0.0
2015-Feb-24 07:33N 37°49' W 122°19'0 0.0
2015-Feb-24 06:33N 37°49' W 122°19'0 0.0
2015-Feb-24 05:33N 37°49' W 122°19'0 0.0
2015-Feb-24 04:33N 37°49' W 122°19'2 1.7
2015-Feb-24 03:33N 37°48' W 122°20'2 2.2
2015-Feb-24 02:33N 37°48' W 122°17'3 3.4
2015-Feb-24 01:33N 37°48' W 122°22'3 2.6
2015-Feb-24 00:33N 37°49' W 122°19'0 0.0
2015-Feb-23 23:33N 37°49' W 122°19'0 0.3
2015-Feb-23 22:33N 37°49' W 122°19'3 3.1
2015-Feb-23 21:34N 37°47' W 122°22'2 2.0
2015-Feb-23 20:33N 37°49' W 122°20'0 0.0
2015-Feb-23 19:33N 37°49' W 122°20'1 1.2
2015-Feb-23 18:33N 37°49' W 122°19'0 0.3
2015-Feb-23 17:33N 37°49' W 122°19'0 0.0
2015-Feb-23 16:33N 37°49' W 122°19'3 3.4
2015-Feb-23 15:33N 37°47' W 122°16'1 1.3
2015-Feb-23 14:33N 37°48' W 122°17'0 0.0
2015-Feb-23 13:33N 37°48' W 122°17'0 0.0
2015-Feb-23 12:32N 37°48' W 122°17'0 0.0
2015-Feb-23 11:33N 37°48' W 122°17'0 0.4
2015-Feb-23 10:33N 37°47' W 122°17'2 1.6
2015-Feb-23 09:32N 37°48' W 122°19'2 1.6
2015-Feb-23 08:33N 37°49' W 122°19'0 0.0
2015-Feb-23 07:33N 37°49' W 122°19'0 0.0
2015-Feb-23 06:33N 37°49' W 122°19'0 0.0
2015-Feb-23 05:33N 37°49' W 122°19'0 0.0
2015-Feb-23 04:33N 37°49' W 122°19'0 0.0
2015-Feb-23 03:33N 37°49' W 122°19'0 0.0
2015-Feb-23 02:33N 37°49' W 122°19'0 0.0
2015-Feb-23 01:33N 37°49' W 122°19'0 0.0
2015-Feb-23 00:33N 37°49' W 122°19'0 0.0
2015-Feb-22 23:33N 37°49' W 122°19'0 0.0
2015-Feb-22 22:33N 37°49' W 122°19'0 0.0
2015-Feb-22 21:33N 37°49' W 122°19'0 0.0
2015-Feb-22 20:33N 37°49' W 122°19'0 0.0
2015-Feb-22 19:33N 37°49' W 122°19'0 0.3
2015-Feb-22 18:33N 37°49' W 122°19'2 2.3
2015-Feb-22 17:33N 37°48' W 122°22'3 2.5
2015-Feb-22 16:33N 37°49' W 122°19'0 0.0
2015-Feb-22 15:33N 37°49' W 122°19'0 0.0
2015-Feb-22 14:33N 37°49' W 122°19'0 0.0
2015-Feb-22 13:33N 37°49' W 122°19'0 0.0
2015-Feb-22 12:33N 37°49' W 122°19'0 0.0
2015-Feb-22 11:33N 37°49' W 122°19'0 0.0
2015-Feb-22 10:33N 37°49' W 122°19'0 0.0
2015-Feb-22 09:33N 37°49' W 122°19'0 0.0
2015-Feb-22 08:33N 37°49' W 122°19'0 0.0
2015-Feb-22 07:33N 37°49' W 122°19'0 0.0
2015-Feb-22 06:33N 37°49' W 122°19'0 0.0
2015-Feb-22 05:33N 37°49' W 122°19'0 0.0
2015-Feb-22 04:33N 37°49' W 122°19'0 0.0
2015-Feb-22 03:33N 37°49' W 122°19'0 0.0
2015-Feb-22 02:33N 37°49' W 122°19'0 0.0
2015-Feb-22 01:33N 37°49' W 122°19'0 0.0
2015-Feb-22 00:33N 37°49' W 122°19'0 0.0
2015-Feb-21 23:33N 37°49' W 122°19'0 0.0
2015-Feb-21 22:33N 37°49' W 122°19'0 0.0
2015-Feb-21 21:33N 37°49' W 122°19'0 0.0
2015-Feb-21 20:33N 37°49' W 122°19'0 0.0
2015-Feb-21 19:33N 37°49' W 122°19'0 0.0
2015-Feb-21 18:33N 37°49' W 122°19'2 2.0
2015-Feb-21 17:34N 37°48' W 122°21'0 0.3
2015-Feb-21 16:33N 37°48' W 122°21'1 1.1
2015-Feb-21 15:33N 37°49' W 122°20'0 0.0
2015-Feb-21 14:33N 37°49' W 122°20'0 0.0
2015-Feb-21 13:33N 37°49' W 122°20'0 0.0
2015-Feb-21 12:33N 37°49' W 122°20'0 0.0
2015-Feb-21 11:33N 37°49' W 122°20'0 0.5
2015-Feb-21 10:33N 37°49' W 122°19'1 0.7
2015-Feb-21 09:33N 37°49' W 122°19'0 0.1
2015-Feb-21 08:33N 37°49' W 122°19'0 0.0
2015-Feb-21 07:33N 37°49' W 122°19'0 0.0
2015-Feb-21 06:33N 37°49' W 122°19'0 0.0
2015-Feb-21 05:33N 37°49' W 122°19'0 0.0
2015-Feb-21 04:33N 37°49' W 122°19'0 0.0
2015-Feb-21 03:33N 37°49' W 122°19'0 0.0
2015-Feb-21 02:33N 37°49' W 122°19'0 0.0
2015-Feb-21 01:33N 37°49' W 122°19'0 0.4
2015-Feb-21 00:34N 37°49' W 122°19'0 0.4
2015-Feb-20 23:33N 37°49' W 122°19'0 0.0
2015-Feb-20 22:33N 37°49' W 122°19'2 1.8
2015-Feb-20 21:34N 37°48' W 122°18'0 0.3
2015-Feb-20 20:33N 37°48' W 122°18'2 1.9
2015-Feb-20 19:33N 37°48' W 122°20'2 1.8
2015-Feb-20 18:33N 37°49' W 122°19'0 0.0
2015-Feb-20 17:33N 37°49' W 122°19'0 0.0
2015-Feb-20 16:33N 37°49' W 122°19'0 0.0
2015-Feb-20 15:33N 37°49' W 122°19'0 0.0
2015-Feb-20 14:33N 37°49' W 122°19'0 0.0
2015-Feb-20 13:33N 37°49' W 122°19'0 0.0
2015-Feb-20 12:33N 37°49' W 122°19'0 0.0
2015-Feb-20 11:33N 37°49' W 122°19'0 0.0
2015-Feb-20 10:33N 37°49' W 122°19'0 0.0
2015-Feb-20 09:33N 37°49' W 122°19'0 0.0
2015-Feb-20 08:33N 37°49' W 122°19'0 0.0
2015-Feb-20 07:33N 37°49' W 122°19'0 0.0
2015-Feb-20 06:33N 37°49' W 122°19'0 0.0
2015-Feb-20 05:33N 37°49' W 122°19'2 1.9
2015-Feb-20 04:33N 37°48' W 122°18'1 0.5
2015-Feb-20 03:33N 37°48' W 122°17'0 0.0
2015-Feb-20 02:33N 37°48' W 122°17'0 0.0
2015-Feb-20 01:33N 37°48' W 122°17'0 0.0
2015-Feb-20 00:33N 37°48' W 122°17'0 0.4
2015-Feb-19 23:34N 37°48' W 122°18'0 0.3
2015-Feb-19 22:33N 37°48' W 122°18'0 0.0
2015-Feb-19 21:33N 37°48' W 122°18'2 1.8
2015-Feb-19 20:33N 37°49' W 122°19'0 0.0
2015-Feb-19 19:33N 37°49' W 122°19'0 0.0
2015-Feb-19 18:33N 37°49' W 122°19'0 0.0
2015-Feb-19 17:33N 37°49' W 122°19'0 0.0
2015-Feb-19 16:33N 37°49' W 122°19'0 0.0
2015-Feb-19 15:33N 37°49' W 122°19'2 1.8
2015-Feb-19 14:33N 37°48' W 122°18'2 1.8
2015-Feb-19 13:33N 37°49' W 122°19'0 0.0
2015-Feb-19 12:33N 37°49' W 122°19'0 0.0
2015-Feb-19 11:33N 37°49' W 122°19'0 0.0
2015-Feb-19 10:33N 37°49' W 122°19'0 0.0
2015-Feb-19 09:33N 37°49' W 122°19'0 0.0
2015-Feb-19 08:33N 37°49' W 122°19'0 0.0
2015-Feb-19 07:33N 37°49' W 122°19'0 0.0
2015-Feb-19 06:33N 37°49' W 122°19'0 0.0
2015-Feb-19 05:33N 37°49' W 122°19'0 0.0
2015-Feb-19 04:33N 37°49' W 122°19'  

Dump ship's entire track history